Time;durP1;ratioP1;P1;durP2;ratioP2;P2;SDS_P1;SDS_P2;PMS_P1;PMS_P2;Temp;Humidity;BMP_temperature;BMP_pressure;BME280_temperature;BME280_humidity;BME280_pressure;Samples;Min_cycle;Max_cycle;Signal;HPM_P1;HPM_P2
2021/06/26 00:01:37;;;;;;;1.42;0.52;;;;;;;24.76;31.25;100395.94;5029890;28;20045;-32
2021/06/26 00:04:05;;;;;;;1.98;1.13;;;;;;;25.11;30.77;100395.81;5030341;28;20041;-35
2021/06/26 00:06:33;;;;;;;0.98;0.55;;;;;;;24.96;29.89;100392.94;5033543;28;20052;-29
2021/06/26 00:09:00;;;;;;;1.23;0.60;;;;;;;25.17;30.53;100392.50;5033786;28;20444;-31
2021/06/26 00:11:27;;;;;;;2.53;0.50;;;;;;;25.24;30.22;100390.81;5034201;28;20076;-31
2021/06/26 00:13:54;;;;;;;0.40;0.40;;;;;;;25.15;29.48;100394.50;5033460;28;20121;-32
2021/06/26 00:16:21;;;;;;;0.52;0.52;;;;;;;25.07;29.60;100397.97;5028744;28;20050;-31
2021/06/26 00:18:48;;;;;;;4.32;1.55;;;;;;;25.26;30.00;100391.50;5031299;28;20120;-32
2021/06/26 00:21:15;;;;;;;1.10;0.57;;;;;;;24.99;30.20;100388.13;5033489;28;20116;-32
2021/06/26 00:23:43;;;;;;;1.02;0.68;;;;;;;25.12;30.36;100392.16;5033802;28;20049;-31
2021/06/26 00:26:17;;;;;;;0.40;0.40;;;;;;;25.15;30.09;100398.00;5033326;28;20480;-30
2021/06/26 00:28:45;;;;;;;0.77;0.40;;;;;;;25.26;30.09;100384.31;5033862;28;20037;-26
2021/06/26 00:31:12;;;;;;;1.70;0.85;;;;;;;25.08;30.09;100384.47;5033306;28;20132;-27
2021/06/26 00:33:39;;;;;;;0.80;0.50;;;;;;;24.75;30.33;100393.44;5032262;28;20550;-28
2021/06/26 00:36:06;;;;;;;3.95;0.50;;;;;;;24.92;30.06;100396.94;5032798;28;20660;-27
2021/06/26 00:38:33;;;;;;;0.40;0.40;;;;;;;24.72;30.56;100399.13;5033298;28;20045;-27
2021/06/26 00:41:00;;;;;;;2.92;0.60;;;;;;;24.76;30.45;100397.75;5033077;28;20080;-28
2021/06/26 00:43:27;;;;;;;1.17;0.60;;;;;;;24.76;30.28;100393.25;5032426;28;20037;-27
2021/06/26 00:45:59;;;;;;;0.45;0.45;;;;;;;24.59;30.63;100393.41;5032961;28;20464;-25
2021/06/26 00:48:27;;;;;;;1.33;0.57;;;;;;;24.70;30.50;100388.59;5033633;28;20129;-32
2021/06/26 00:50:54;;;;;;;2.90;0.55;;;;;;;24.82;30.53;100381.97;5033532;28;20048;-34
2021/06/26 00:53:21;;;;;;;1.17;0.50;;;;;;;24.56;30.74;100381.25;5033189;28;20055;-33
2021/06/26 00:55:54;;;;;;;3.95;0.60;;;;;;;24.32;31.38;100389.97;5033311;28;20045;-32
2021/06/26 00:58:24;;;;;;;2.40;0.43;;;;;;;24.34;31.26;100381.81;5033108;28;20045;-33
2021/06/26 01:00:52;;;;;;;2.45;0.75;;;;;;;23.86;31.75;100388.63;5033644;28;20110;-29
2021/06/26 01:03:20;;;;;;;0.80;0.80;;;;;;;23.79;32.36;100385.78;5032610;28;20080;-34
2021/06/26 01:05:47;;;;;;;1.17;0.47;;;;;;;23.43;33.27;100390.34;5033657;28;20061;-31
2021/06/26 01:08:15;;;;;;;0.95;0.50;;;;;;;22.69;35.04;100384.41;5033407;28;20465;-30
2021/06/26 01:10:42;;;;;;;3.40;0.60;;;;;;;22.46;35.68;100394.63;5033237;28;20485;-31
2021/06/26 01:13:09;;;;;;;5.07;0.60;;;;;;;22.40;35.56;100402.38;5032808;28;20556;-29
2021/06/26 01:15:36;;;;;;;0.68;0.68;;;;;;;22.21;35.94;100392.69;5031947;28;20171;-34
2021/06/26 01:18:03;;;;;;;0.88;0.60;;;;;;;22.13;36.34;100403.22;5033099;28;20457;-30
2021/06/26 01:20:30;;;;;;;2.10;0.50;;;;;;;22.37;35.88;100400.84;5033039;28;20147;-31
2021/06/26 01:22:59;;;;;;;6.55;0.70;;;;;;;22.22;36.42;100399.69;5032936;28;20054;-30
2021/06/26 01:25:28;;;;;;;5.40;1.80;;;;;;;22.13;37.62;100400.56;5033022;28;20068;-30
2021/06/26 01:27:57;;;;;;;3.33;1.63;;;;;;;21.79;38.88;100409.06;5033059;28;20041;-30
2021/06/26 01:30:30;;;;;;;3.92;1.45;;;;;;;21.71;39.57;100417.72;5032468;28;20124;-31
2021/06/26 01:32:58;;;;;;;6.65;1.40;;;;;;;21.40;41.03;100429.50;5032960;28;20049;-30
2021/06/26 01:35:26;;;;;;;3.42;1.80;;;;;;;21.03;43.88;100442.63;5032655;28;20038;-32
2021/06/26 01:37:54;;;;;;;3.78;2.17;;;;;;;20.90;44.85;100443.75;5032269;28;20104;-33
2021/06/26 01:40:24;;;;;;;5.88;2.22;;;;;;;20.58;46.19;100446.63;5031867;28;20033;-27
2021/06/26 01:42:53;;;;;;;7.40;2.65;;;;;;;20.41;46.79;100452.53;5032833;28;20052;-28
2021/06/26 01:45:21;;;;;;;3.67;1.90;;;;;;;20.50;46.81;100453.56;5032535;28;20079;-29
2021/06/26 01:47:54;;;;;;;6.18;2.28;;;;;;;20.28;47.50;100452.75;5032927;28;20055;-30
2021/06/26 01:50:23;;;;;;;7.13;2.22;;;;;;;20.44;47.16;100467.31;5032742;28;20053;-26
2021/06/26 01:52:50;;;;;;;8.35;2.15;;;;;;;20.33;47.65;100466.44;5032554;28;20034;-29
2021/06/26 01:55:19;;;;;;;7.32;1.83;;;;;;;20.17;48.25;100450.22;5036446;28;20079;-31
2021/06/26 01:57:48;;;;;;;5.82;2.28;;;;;;;20.02;48.66;100456.84;5036572;28;20480;-31
2021/06/26 02:00:16;;;;;;;6.82;2.00;;;;;;;20.03;48.53;100453.25;5036846;28;20037;-30
2021/06/26 02:02:44;;;;;;;3.63;2.00;;;;;;;20.53;47.14;100450.66;5036756;28;20357;-30
2021/06/26 02:05:12;;;;;;;4.32;1.48;;;;;;;20.45;47.01;100453.09;5036895;28;20048;-29
2021/06/26 02:07:39;;;;;;;5.28;1.65;;;;;;;21.09;45.32;100445.56;5036492;28;20571;-33
2021/06/26 02:10:07;;;;;;;7.25;1.30;;;;;;;20.97;45.14;100438.72;5036861;28;20041;-31
2021/06/26 02:12:34;;;;;;;6.78;1.55;;;;;;;20.84;45.68;100432.88;5036092;28;20042;-30
2021/06/26 02:15:07;;;;;;;4.82;2.10;;;;;;;20.61;45.94;100442.84;5036800;28;20052;-31
2021/06/26 02:17:35;;;;;;;3.10;1.13;;;;;;;20.70;45.80;100447.34;5036664;28;20048;-26
2021/06/26 02:20:04;;;;;;;6.15;1.80;;;;;;;20.60;46.07;100441.19;5036401;28;20052;-29
2021/06/26 02:22:30;;;;;;;6.00;1.73;;;;;;;20.87;45.53;100438.69;5036165;28;20046;-28
2021/06/26 02:25:02;;;;;;;5.80;1.60;;;;;;;20.57;45.54;100436.16;5036226;28;20045;-28
2021/06/26 02:27:29;;;;;;;4.00;1.50;;;;;;;20.69;45.42;100435.06;5036561;28;20073;-30
2021/06/26 02:29:56;;;;;;;2.60;1.38;;;;;;;20.25;46.03;100439.81;5035811;28;20397;-30
2021/06/26 02:32:23;;;;;;;2.05;1.63;;;;;;;20.47;44.53;100430.00;5036340;28;20399;-32
2021/06/26 02:34:52;;;;;;;4.20;1.38;;;;;;;20.50;44.71;100429.72;5036080;28;20045;-32
2021/06/26 02:37:20;;;;;;;2.90;1.00;;;;;;;20.43;45.01;100432.06;5036110;28;20053;-29
2021/06/26 02:39:47;;;;;;;2.60;1.00;;;;;;;20.71;43.59;100433.09;5035947;28;20453;-31
2021/06/26 02:42:15;;;;;;;4.15;0.90;;;;;;;20.87;42.77;100421.97;5036135;28;20061;-31
2021/06/26 02:44:42;;;;;;;7.22;1.15;;;;;;;20.67;43.64;100421.13;5035904;28;20048;-30
2021/06/26 02:47:08;;;;;;;3.15;0.80;;;;;;;20.57;43.78;100425.56;5035559;28;20037;-30
2021/06/26 02:49:35;;;;;;;3.60;1.08;;;;;;;20.61;43.18;100427.81;5035792;28;20049;-29
2021/06/26 02:52:05;;;;;;;2.78;1.00;;;;;;;20.47;43.39;100433.50;5035429;28;20420;-30
2021/06/26 02:54:33;;;;;;;4.93;1.45;;;;;;;20.45;43.46;100431.91;5035717;28;20556;-30
2021/06/26 02:57:00;;;;;;;7.55;1.13;;;;;;;20.40;43.56;100430.53;5035270;28;20072;-29
2021/06/26 02:59:27;;;;;;;2.45;1.25;;;;;;;20.46;44.16;100428.31;5035776;28;20041;-31
2021/06/26 03:01:54;;;;;;;4.57;1.42;;;;;;;20.29;45.10;100427.13;5035188;28;20037;-29
2021/06/26 03:04:21;;;;;;;4.47;1.65;;;;;;;20.35;45.44;100432.75;5035927;28;20056;-33
2021/06/26 03:06:48;;;;;;;3.42;1.85;;;;;;;20.25;46.10;100436.34;5034710;28;20049;-30
2021/06/26 03:09:16;;;;;;;2.05;1.23;;;;;;;20.28;46.32;100442.19;5035603;28;20049;-32
2021/06/26 03:11:43;;;;;;;6.38;1.15;;;;;;;19.97;46.48;100428.13;5035626;28;20100;-30
2021/06/26 03:14:09;;;;;;;2.55;1.52;;;;;;;19.73;47.26;100433.72;5035102;28;20041;-29
2021/06/26 03:16:36;;;;;;;4.78;1.63;;;;;;;19.73;47.85;100436.38;5035273;28;20042;-29
2021/06/26 03:19:04;;;;;;;3.30;1.38;;;;;;;19.66;48.29;100434.38;5035116;28;20048;-30
2021/06/26 03:21:30;;;;;;;4.30;1.63;;;;;;;19.72;48.30;100441.78;5035497;28;20037;-31
2021/06/26 03:23:57;;;;;;;3.28;1.42;;;;;;;20.01;47.33;100434.00;5034760;28;20443;-34
2021/06/26 03:26:24;;;;;;;4.10;1.38;;;;;;;19.88;47.68;100439.50;5035392;28;20460;-30
2021/06/26 03:28:51;;;;;;;8.98;1.75;;;;;;;19.86;47.45;100436.97;5035053;28;20037;-32
2021/06/26 03:31:18;;;;;;;4.43;1.45;;;;;;;20.03;47.09;100430.25;5034998;28;20145;-31
2021/06/26 03:33:46;;;;;;;7.32;2.22;;;;;;;20.29;46.18;100435.91;5035061;28;20068;-30
2021/06/26 03:36:14;;;;;;;5.63;1.63;;;;;;;20.32;46.25;100438.28;5034702;28;20045;-31
2021/06/26 03:38:41;;;;;;;7.95;1.98;;;;;;;20.44;45.74;100440.81;5034963;28;20037;-30
2021/06/26 03:41:08;;;;;;;2.67;1.58;;;;;;;20.06;46.59;100452.97;5032174;28;20045;-32
2021/06/26 03:43:35;;;;;;;3.83;1.60;;;;;;;20.20;47.80;100455.25;5020620;28;20080;-29
2021/06/26 03:46:02;;;;;;;7.50;1.63;;;;;;;20.07;47.88;100452.81;5029826;28;20037;-31
2021/06/26 03:48:29;;;;;;;3.65;1.73;;;;;;;20.19;47.69;100453.59;5034128;28;20129;-31
2021/06/26 03:50:59;;;;;;;4.97;1.55;;;;;;;20.09;48.07;100452.72;5015510;28;20150;-30
2021/06/26 03:53:26;;;;;;;3.72;1.30;;;;;;;20.20;47.81;100455.25;5031890;28;20076;-29
2021/06/26 03:55:54;;;;;;;1.88;1.58;;;;;;;20.20;47.20;100459.72;5033772;28;20041;-30
2021/06/26 03:58:26;;;;;;;13.05;2.42;;;;;;;20.24;46.94;100461.97;5033760;28;20042;-29
2021/06/26 04:00:55;;;;;;;13.77;2.13;;;;;;;20.39;46.78;100459.75;5033384;28;20492;-31
2021/06/26 04:03:23;;;;;;;7.05;1.75;;;;;;;20.34;47.04;100468.09;5033921;28;20045;-30
2021/06/26 04:05:50;;;;;;;5.38;1.38;;;;;;;20.15;47.15;100468.06;5034000;28;20244;-31
2021/06/26 04:08:17;;;;;;;7.68;1.58;;;;;;;20.30;47.39;100461.44;5033879;28;20099;-31
2021/06/26 04:10:45;;;;;;;38.70;2.33;;;;;;;20.31;47.68;100465.75;5032105;28;20036;-33
2021/06/26 04:13:12;;;;;;;4.93;1.50;;;;;;;20.14;48.14;100466.38;5032074;28;20048;-31
2021/06/26 04:15:39;;;;;;;5.65;1.50;;;;;;;20.25;46.76;100471.56;5029728;28;20042;-32
2021/06/26 04:18:06;;;;;;;7.15;2.05;;;;;;;20.37;46.67;100472.31;5030268;28;20499;-30
2021/06/26 04:20:33;;;;;;;2.13;1.48;;;;;;;20.62;45.29;100481.63;5031701;28;20065;-30
2021/06/26 04:23:01;;;;;;;5.05;2.35;;;;;;;20.80;44.33;100479.16;5032182;28;20130;-29
2021/06/26 04:25:28;;;;;;;1.85;1.20;;;;;;;20.74;45.05;100480.53;5031587;28;20041;-31
2021/06/26 04:27:56;;;;;;;4.00;1.40;;;;;;;20.84;44.99;100480.56;5030667;28;20038;-31
2021/06/26 04:30:22;;;;;;;5.57;1.52;;;;;;;21.31;43.91;100486.91;5032706;28;20095;-28
2021/06/26 04:32:49;;;;;;;2.40;1.25;;;;;;;21.00;45.33;100490.63;5031535;28;20117;-26
2021/06/26 04:35:20;;;;;;;5.60;1.92;;;;;;;20.89;45.57;100491.59;5032727;28;20120;-29
2021/06/26 04:37:47;;;;;;;5.68;1.30;;;;;;;20.98;44.54;100490.72;5027420;28;20089;-29
2021/06/26 04:40:15;;;;;;;4.57;1.42;;;;;;;20.85;45.54;100487.53;5030319;28;20045;-30
2021/06/26 04:42:43;;;;;;;5.00;1.63;;;;;;;21.10;45.81;100491.47;5027716;28;20041;-29
2021/06/26 04:45:10;;;;;;;5.32;1.58;;;;;;;21.03;45.55;100490.31;5031120;28;20053;-30
2021/06/26 04:47:40;;;;;;;4.28;1.10;;;;;;;20.95;44.76;100490.19;5023585;28;20048;-30
2021/06/26 04:50:08;;;;;;;3.50;1.58;;;;;;;21.23;44.56;100489.38;5032921;28;20044;-31
2021/06/26 04:52:35;;;;;;;2.75;1.17;;;;;;;21.28;43.51;100489.78;5025977;28;20045;-30
2021/06/26 04:55:04;;;;;;;6.03;1.58;;;;;;;21.59;43.13;100493.16;5032205;28;20092;-31
2021/06/26 04:57:31;;;;;;;4.10;1.35;;;;;;;21.68;43.93;100491.47;5025309;28;20450;-31
2021/06/26 04:59:57;;;;;;;1.13;0.98;;;;;;;21.75;44.01;100491.75;5032220;28;20045;-32
2021/06/26 05:02:24;;;;;;;5.88;1.40;;;;;;;22.07;43.66;100496.69;5032619;28;20128;-32
2021/06/26 05:04:51;;;;;;;2.53;0.93;;;;;;;21.87;43.87;100496.72;5033174;28;20493;-34
2021/06/26 05:07:18;;;;;;;7.07;1.30;;;;;;;21.77;44.79;100495.91;5027628;28;20073;-31
2021/06/26 05:09:45;;;;;;;6.20;1.90;;;;;;;22.12;47.15;100494.47;5033234;28;20045;-30
2021/06/26 05:12:12;;;;;;;5.53;1.52;;;;;;;22.14;46.44;100503.09;5032221;28;20404;-29
2021/06/26 05:14:39;;;;;;;3.05;1.30;;;;;;;22.18;46.79;100496.53;5028309;28;20060;-29
2021/06/26 05:17:06;;;;;;;5.35;1.65;;;;;;;22.20;46.01;100497.22;5031725;28;20488;-32
2021/06/26 05:19:33;;;;;;;5.35;1.80;;;;;;;22.38;45.22;100500.78;5033361;28;20580;-30
2021/06/26 05:22:00;;;;;;;11.48;1.30;;;;;;;22.52;45.39;100498.63;5032592;28;20567;-30
2021/06/26 05:24:27;;;;;;;7.18;1.85;;;;;;;22.61;45.00;100506.53;5022946;28;20046;-32
2021/06/26 05:26:53;;;;;;;4.65;2.00;;;;;;;22.74;44.21;100511.50;5032988;28;20124;-31
2021/06/26 05:29:20;;;;;;;3.38;1.00;;;;;;;22.77;43.29;100511.22;5022845;28;20045;-31
2021/06/26 05:31:47;;;;;;;3.33;1.00;;;;;;;22.97;43.57;100514.63;5015807;28;20037;-31
2021/06/26 05:34:14;;;;;;;9.07;2.10;;;;;;;23.45;42.62;100511.59;5029548;28;20049;-32
2021/06/26 05:36:41;;;;;;;4.13;1.48;;;;;;;23.60;41.62;100509.22;5029596;28;20103;-31
2021/06/26 05:39:09;;;;;;;6.93;1.80;;;;;;;23.56;40.98;100512.34;5030800;28;20045;-31
2021/06/26 05:41:36;;;;;;;3.90;1.33;;;;;;;23.87;40.86;100505.63;5032318;28;20129;-29
2021/06/26 05:44:03;;;;;;;2.92;1.45;;;;;;;23.90;41.35;100510.63;5032132;28;20056;-33
2021/06/26 05:46:30;;;;;;;6.38;1.25;;;;;;;23.99;40.61;100511.53;5032352;28;20033;-31
2021/06/26 05:48:57;;;;;;;4.47;1.05;;;;;;;24.15;40.49;100510.78;5032315;28;20124;-34
2021/06/26 05:51:24;;;;;;;13.65;1.27;;;;;;;24.16;41.20;100509.78;5032014;28;20099;-32
2021/06/26 05:53:51;;;;;;;9.35;1.10;;;;;;;24.24;40.39;100509.84;5029072;28;20480;-30
2021/06/26 05:56:17;;;;;;;5.63;1.27;;;;;;;23.92;41.41;100508.66;5032154;28;20052;-33
2021/06/26 05:58:44;;;;;;;13.63;1.95;;;;;;;24.06;41.48;100512.53;5032140;28;20049;-30
2021/06/26 06:01:11;;;;;;;3.67;1.23;;;;;;;24.13;41.34;100513.59;5031983;28;20522;-32
2021/06/26 06:03:44;;;;;;;24.90;1.85;;;;;;;24.41;41.00;100513.44;5031971;28;20049;-31
2021/06/26 06:06:12;;;;;;;6.45;2.35;;;;;;;24.26;41.95;100516.66;5031782;28;20068;-30
2021/06/26 06:08:39;;;;;;;11.68;3.25;;;;;;;24.55;41.12;100516.34;5032504;28;20037;-31
2021/06/26 06:11:06;;;;;;;4.07;1.73;;;;;;;24.64;41.39;100519.03;5031914;28;20033;-32
2021/06/26 06:13:32;;;;;;;4.50;1.30;;;;;;;24.58;41.69;100517.84;5032118;28;20076;-33
2021/06/26 06:15:59;;;;;;;5.50;1.45;;;;;;;24.63;41.88;100522.69;5032308;28;20556;-33
2021/06/26 06:18:26;;;;;;;5.40;1.40;;;;;;;24.56;41.83;100526.00;5031795;28;20069;-32
2021/06/26 06:20:53;;;;;;;14.93;1.60;;;;;;;24.58;42.32;100525.84;5032110;28;20500;-31
2021/06/26 06:23:20;;;;;;;3.42;1.10;;;;;;;24.76;41.63;100523.06;5031970;28;20496;-31
2021/06/26 06:25:47;;;;;;;7.90;1.58;;;;;;;24.68;41.69;100521.22;5024496;28;20045;-33
2021/06/26 06:28:14;;;;;;;4.40;1.70;;;;;;;24.63;41.81;100523.53;5023599;28;20463;-34
2021/06/26 06:30:41;;;;;;;4.65;1.20;;;;;;;24.64;41.93;100514.53;5021008;28;20551;-32
2021/06/26 06:33:08;;;;;;;6.80;1.52;;;;;;;24.62;42.22;100531.69;5022013;28;20481;-31
2021/06/26 06:35:35;;;;;;;2.65;1.20;;;;;;;24.64;41.86;100525.19;5028416;28;20068;-30
2021/06/26 06:38:03;;;;;;;5.20;1.20;;;;;;;24.59;42.36;100522.16;5026793;28;20451;-32
2021/06/26 06:40:30;;;;;;;2.75;0.90;;;;;;;24.67;41.18;100526.72;5020275;28;20041;-33
2021/06/26 06:42:57;;;;;;;4.68;1.40;;;;;;;24.68;41.11;100520.38;5022384;28;20042;-33
2021/06/26 06:45:24;;;;;;;8.20;1.33;;;;;;;24.79;41.25;100523.56;5024822;28;20141;-28
2021/06/26 06:47:51;;;;;;;5.10;1.45;;;;;;;24.83;41.22;100529.44;5029018;28;20487;-30
2021/06/26 06:50:17;;;;;;;8.77;1.73;;;;;;;24.88;41.24;100529.78;5028982;28;20061;-30
2021/06/26 06:52:45;;;;;;;4.57;1.20;;;;;;;24.91;41.37;100526.78;5028427;28;20037;-28
2021/06/26 06:55:12;;;;;;;4.68;1.55;;;;;;;24.94;41.25;100531.78;5024697;28;20042;-29
2021/06/26 06:57:39;;;;;;;3.65;1.35;;;;;;;24.96;41.18;100532.44;5025930;28;20045;-30
2021/06/26 07:00:08;;;;;;;8.60;1.58;;;;;;;25.00;41.25;100532.97;5029565;28;20152;-33
2021/06/26 07:02:40;;;;;;;3.63;1.35;;;;;;;25.01;41.04;100535.47;5026291;28;20068;-29
2021/06/26 07:05:08;;;;;;;8.13;2.03;;;;;;;25.03;40.99;100533.47;5021516;28;20111;-29
2021/06/26 07:07:35;;;;;;;3.53;1.30;;;;;;;25.04;41.48;100532.47;5028115;28;20043;-31
2021/06/26 07:10:04;;;;;;;2.75;1.48;;;;;;;25.05;41.29;100534.16;5029806;28;20038;-29
2021/06/26 07:12:31;;;;;;;7.60;1.55;;;;;;;25.09;41.11;100526.69;5028413;28;20095;-27
2021/06/26 07:14:57;;;;;;;4.03;1.60;;;;;;;25.12;41.01;100525.53;5031694;28;20106;-28
2021/06/26 07:17:24;;;;;;;1.70;1.17;;;;;;;25.15;41.32;100534.03;5029879;28;20049;-30
2021/06/26 07:19:51;;;;;;;7.63;1.50;;;;;;;25.23;41.62;100533.19;5029317;28;20116;-27
2021/06/26 07:22:18;;;;;;;4.53;1.50;;;;;;;25.14;41.55;100532.38;5027721;28;20044;-29
2021/06/26 07:24:45;;;;;;;3.72;1.90;;;;;;;25.17;41.28;100536.53;5026541;28;20084;-29
2021/06/26 07:27:12;;;;;;;2.10;1.60;;;;;;;25.20;41.36;100538.88;5024505;28;20034;-26
2021/06/26 07:29:39;;;;;;;3.20;1.33;;;;;;;25.21;40.99;100541.38;5026667;28;20144;-26
2021/06/26 07:32:06;;;;;;;6.55;1.67;;;;;;;25.21;41.14;100529.88;5027373;28;20124;-26
2021/06/26 07:34:33;;;;;;;6.78;1.30;;;;;;;25.25;41.29;100536.56;5029032;28;20132;-28
2021/06/26 07:37:00;;;;;;;4.55;1.73;;;;;;;25.28;40.85;100530.88;5019588;28;20050;-25
2021/06/26 07:39:27;;;;;;;1.67;1.30;;;;;;;25.30;40.86;100534.19;5025371;28;20474;-28
2021/06/26 07:41:53;;;;;;;8.85;2.25;;;;;;;25.31;41.02;100527.91;5026350;28;20044;-26
2021/06/26 07:44:22;;;;;;;5.35;1.48;;;;;;;25.32;40.97;100530.38;5021492;28;20093;-26
2021/06/26 07:46:49;;;;;;;4.07;1.40;;;;;;;25.34;40.79;100523.03;5020138;28;20147;-27
2021/06/26 07:49:16;;;;;;;9.55;2.42;;;;;;;25.38;40.80;100520.88;5020863;28;20041;-25
2021/06/26 07:51:43;;;;;;;6.05;1.33;;;;;;;25.40;40.65;100515.38;5025967;28;20034;-28
2021/06/26 07:54:10;;;;;;;1.38;1.13;;;;;;;25.42;40.87;100521.41;5025341;28;20068;-31
2021/06/26 07:56:40;;;;;;;5.70;1.35;;;;;;;25.44;40.94;100519.38;5025679;28;20051;-28
2021/06/26 07:59:07;;;;;;;3.22;1.52;;;;;;;25.44;41.00;100517.53;5025065;28;20068;-26
2021/06/26 08:01:33;;;;;;;3.83;1.80;;;;;;;25.46;41.27;100525.38;5026699;28;20052;-27
2021/06/26 08:04:02;;;;;;;8.25;2.45;;;;;;;25.44;41.35;100522.88;5022857;28;20464;-28
2021/06/26 08:06:29;;;;;;;4.93;1.77;;;;;;;25.46;41.40;100520.91;5024707;28;20096;-26
2021/06/26 08:08:55;;;;;;;7.50;1.60;;;;;;;25.49;41.04;100519.72;5025657;28;20044;-27
2021/06/26 08:11:22;;;;;;;3.75;1.73;;;;;;;25.52;41.09;100509.56;5025918;28;20037;-30
2021/06/26 08:13:51;;;;;;;11.15;2.00;;;;;;;25.52;41.35;100509.56;5029189;28;20497;-32
2021/06/26 08:16:18;;;;;;;5.65;1.60;;;;;;;25.53;41.34;100505.03;5026757;28;20041;-26
2021/06/26 08:18:45;;;;;;;2.95;1.92;;;;;;;25.55;41.40;100501.19;5029246;28;20033;-25
2021/06/26 08:21:11;;;;;;;3.08;1.73;;;;;;;25.55;41.47;100503.88;5026173;28;20451;-28
2021/06/26 08:23:38;;;;;;;3.22;1.80;;;;;;;25.58;41.54;100508.06;5028464;28;20042;-28
2021/06/26 08:26:05;;;;;;;3.35;1.60;;;;;;;25.61;41.50;100500.53;5025644;28;20064;-28
2021/06/26 08:28:32;;;;;;;6.75;1.92;;;;;;;25.63;41.49;100503.03;5025040;28;20056;-27
2021/06/26 08:30:59;;;;;;;2.15;1.33;;;;;;;25.67;41.63;100515.03;5025644;28;20120;-27
2021/06/26 08:33:26;;;;;;;4.97;1.48;;;;;;;25.68;41.84;100513.22;5022824;28;20054;-27
2021/06/26 08:35:52;;;;;;;6.55;1.83;;;;;;;25.69;41.75;100510.38;5022524;28;20043;-26
2021/06/26 08:38:19;;;;;;;7.85;3.03;;;;;;;25.71;41.97;100504.84;5026937;28;20042;-28
2021/06/26 08:40:52;;;;;;;3.75;1.70;;;;;;;25.73;41.62;100505.53;5020945;28;20380;-26
2021/06/26 08:43:20;;;;;;;4.97;2.17;;;;;;;25.76;42.23;100494.53;5020146;28;20100;-30
2021/06/26 08:45:47;;;;;;;3.22;1.98;;;;;;;25.77;42.07;100498.88;5020973;28;20088;-30
2021/06/26 08:48:14;;;;;;;12.98;2.28;;;;;;;25.80;41.95;100507.38;5026612;28;20128;-27
2021/06/26 08:50:41;;;;;;;2.13;1.88;;;;;;;25.80;42.11;100502.03;5025454;28;20140;-25
2021/06/26 08:53:08;;;;;;;3.58;2.28;;;;;;;25.81;42.37;100508.22;5027651;28;20048;-30
2021/06/26 08:55:35;;;;;;;11.25;2.35;;;;;;;25.85;42.19;100506.88;5027876;28;20041;-31
2021/06/26 08:58:04;;;;;;;4.88;2.28;;;;;;;25.86;41.95;100503.19;5027853;28;20155;-27
2021/06/26 09:00:31;;;;;;;3.70;2.17;;;;;;;25.86;42.42;100509.38;5023420;28;20042;-25
2021/06/26 09:03:12;;;;;;;6.10;2.53;;;;;;;25.87;42.43;100502.19;5023250;28;20038;-31
2021/06/26 09:05:41;;;;;;;8.55;2.15;;;;;;;25.85;42.60;100496.19;5022694;28;20041;-30
2021/06/26 09:08:09;;;;;;;3.40;2.50;;;;;;;25.87;42.48;100502.19;5023835;28;20064;-30
2021/06/26 09:10:37;;;;;;;8.20;2.45;;;;;;;25.90;42.96;100496.53;5025760;28;20092;-29
2021/06/26 09:13:16;;;;;;;4.00;1.90;;;;;;;25.90;42.69;100509.88;5027788;28;20048;-27
2021/06/26 09:15:44;;;;;;;3.80;2.05;;;;;;;25.84;43.28;100510.56;5027720;28;20117;-30
2021/06/26 09:18:18;;;;;;;4.45;1.92;;;;;;;25.72;43.69;100506.53;5029352;28;20050;-28
2021/06/26 09:20:51;;;;;;;11.52;2.40;;;;;;;25.75;43.08;100500.88;5030097;28;20166;-29
2021/06/26 09:23:23;;;;;;;6.07;2.35;;;;;;;25.55;42.46;100503.88;5022918;28;20125;-26
2021/06/26 09:25:51;;;;;;;8.03;2.60;;;;;;;25.52;42.15;100503.38;5023056;28;20049;-27
2021/06/26 09:28:26;;;;;;;6.95;2.80;;;;;;;25.59;41.67;100504.38;5031464;28;20370;-28
2021/06/26 09:30:53;;;;;;;8.65;2.65;;;;;;;25.60;42.17;100496.19;5031955;28;20061;-30
2021/06/26 09:33:24;;;;;;;7.00;2.67;;;;;;;25.45;41.69;100497.84;5032022;28;20041;-29
2021/06/26 09:36:11;;;;;;;13.85;2.25;;;;;;;25.38;41.58;100498.72;5032060;28;20042;-32
2021/06/26 09:38:56;;;;;;;6.35;2.38;;;;;;;25.48;41.52;100496.72;5016971;28;20117;-31
2021/06/26 09:41:23;;;;;;;6.22;2.22;;;;;;;25.43;41.33;100489.19;5026325;28;20045;-29
2021/06/26 09:43:50;;;;;;;5.90;2.55;;;;;;;25.39;41.28;100490.53;5031435;28;20400;-30
2021/06/26 09:46:19;;;;;;;6.10;2.58;;;;;;;25.44;41.26;100490.03;5031345;28;20040;-29
2021/06/26 09:48:52;;;;;;;9.98;2.03;;;;;;;25.44;41.11;100492.69;5030706;28;20046;-27
2021/06/26 09:51:27;;;;;;;7.35;1.95;;;;;;;25.31;40.93;100495.88;5025026;28;20033;-28
2021/06/26 09:53:56;;;;;;;8.50;2.30;;;;;;;25.33;40.52;100489.34;5030107;28;20049;-28
2021/06/26 09:56:24;;;;;;;3.25;1.92;;;;;;;25.32;40.36;100486.88;5025614;28;20208;-30
2021/06/26 09:58:54;;;;;;;5.35;1.73;;;;;;;25.28;40.30;100488.19;5025425;28;20107;-27
2021/06/26 10:01:21;;;;;;;6.68;1.92;;;;;;;25.36;40.68;100487.38;5027690;28;20041;-28
2021/06/26 10:03:49;;;;;;;7.47;2.35;;;;;;;25.54;40.11;100480.84;5032368;28;20493;-26
2021/06/26 10:06:20;;;;;;;13.93;1.80;;;;;;;25.57;40.16;100475.19;5020048;28;20042;-29
2021/06/26 10:08:48;;;;;;;4.70;2.75;;;;;;;25.59;40.36;100473.16;5032701;28;20132;-30
2021/06/26 10:11:15;;;;;;;5.50;1.90;;;;;;;25.61;40.89;100481.84;5030758;28;20041;-31
2021/06/26 10:13:42;;;;;;;4.05;1.95;;;;;;;25.65;40.45;100471.66;5032074;28;20041;-26
2021/06/26 10:16:09;;;;;;;5.30;2.35;;;;;;;25.60;40.47;100472.16;5035731;28;20041;-31
2021/06/26 10:18:39;;;;;;;6.72;2.90;;;;;;;25.45;40.99;100465.00;5035527;28;20056;-28
2021/06/26 10:21:06;;;;;;;7.18;2.20;;;;;;;25.54;40.57;100461.34;5016319;28;20053;-32
2021/06/26 10:23:34;;;;;;;5.55;1.98;;;;;;;25.59;40.28;100462.50;5016841;28;20038;-33
2021/06/26 10:26:03;;;;;;;17.27;3.38;;;;;;;25.65;40.96;100465.50;5030990;28;20341;-30
2021/06/26 10:28:30;;;;;;;9.35;1.70;;;;;;;25.65;40.53;100455.66;5031969;28;20489;-32
2021/06/26 10:31:04;;;;;;;5.75;2.40;;;;;;;25.69;40.31;100451.63;5022978;28;20048;-29
2021/06/26 10:33:32;;;;;;;7.68;2.80;;;;;;;25.64;40.19;100445.97;5036031;28;20452;-30
2021/06/26 10:36:00;;;;;;;5.75;2.03;;;;;;;25.62;40.40;100453.34;5022295;28;20041;-27
2021/06/26 10:38:45;;;;;;;7.85;2.33;;;;;;;25.64;40.50;100453.16;5031959;28;20049;-29
2021/06/26 10:41:17;;;;;;;8.63;2.53;;;;;;;25.64;40.35;100448.66;5021695;28;20051;-30
2021/06/26 10:43:55;;;;;;;6.30;2.33;;;;;;;25.61;40.05;100452.47;5035762;28;20038;-32
2021/06/26 10:46:22;;;;;;;6.10;2.55;;;;;;;25.55;40.01;100450.47;5035859;28;20080;-31
2021/06/26 10:49:04;;;;;;;6.45;2.63;;;;;;;25.59;39.91;100446.47;5026254;28;20080;-33
2021/06/26 10:51:32;;;;;;;5.88;2.00;;;;;;;25.59;39.65;100445.66;5031465;28;20045;-26
2021/06/26 10:54:20;;;;;;;6.45;1.80;;;;;;;25.59;39.72;100437.63;5030610;28;20037;-25
2021/06/26 10:56:48;;;;;;;16.90;2.53;;;;;;;25.57;39.76;100443.16;5030647;28;20042;-27
2021/06/26 10:59:16;;;;;;;12.15;2.85;;;;;;;25.57;39.64;100429.81;5032418;28;20132;-28
2021/06/26 11:02:00;;;;;;;4.82;2.30;;;;;;;25.65;39.15;100438.78;5036097;28;20057;-30
2021/06/26 11:04:28;;;;;;;7.65;2.28;;;;;;;25.62;39.25;100429.31;5033823;28;20048;-29
2021/06/26 11:07:07;;;;;;;3.72;1.67;;;;;;;25.63;38.97;100430.13;5034609;28;20048;-27
2021/06/26 11:09:36;;;;;;;5.95;2.40;;;;;;;25.61;38.83;100425.78;5032782;28;20045;-28
2021/06/26 11:12:21;;;;;;;2.53;1.23;;;;;;;25.69;38.65;100418.78;5030545;28;20403;-29
2021/06/26 11:14:57;;;;;;;3.25;1.63;;;;;;;25.66;38.60;100414.59;5015719;28;20140;-29
2021/06/26 11:17:39;;;;;;;4.30;1.75;;;;;;;25.68;38.62;100419.78;5025580;28;20041;-29
2021/06/26 11:20:12;;;;;;;7.05;2.13;;;;;;;25.58;38.92;100412.78;5034913;28;20488;-29
2021/06/26 11:22:43;;;;;;;5.55;1.80;;;;;;;25.51;38.81;100414.44;5017096;28;20054;-28
2021/06/26 11:25:12;;;;;;;4.55;1.75;;;;;;;25.45;38.75;100409.78;5033931;28;20045;-30
2021/06/26 11:27:38;;;;;;;2.20;1.52;;;;;;;25.43;38.63;100403.81;5033567;28;20128;-30
2021/06/26 11:30:07;;;;;;;5.45;2.03;;;;;;;25.35;38.44;100401.13;5025525;28;20064;-31